Wichita, KS (67208)

3:02 PM CDT on August 29, 2014 (GMT -0500)
Peach Tree | Change Station
CLOSE
Current Station
Personal Weather Station
Location: Eastborough, KS
Elevation: 1368 ft
Nearby Weather Stations

Elev 1368 ft 37.68 °N, 97.26 °W | Updated 2 minutes ago

Scattered Clouds
Scattered Clouds
86.9 °F
Feels Like 91 °F
N
1.0
Wind Variable Wind from South
Gusts 1.0 mph

Today
High -- | Low -- °F
--% Chance of Precip.
Yesterday
High -- | Low -- °F
Precip. -- in
6:56 AM 8:02 PM
Waxing Crescent, 16% visible
Pressure 29.82 in
Visibility 10.0 miles
Clouds Scattered Clouds 4200 ft
Heat Index 91 °F
Dew Point 69 °F
Humidity 55%
Rainfall 0.02 in
Snow Depth Not available.
UV 2.5 out of 12
Pollen 9.20 out of 12
Air Quality Not available.
Flu Activity Not available.
METAR KAAO 291954Z AUTO 20014KT 10SM SCT042 29/18 A2985 RMK AO2 SLP096 T02890183

More Conditions Fewer Conditions

Pressure 29.82 in
Visibility 10.0 miles
Clouds Scattered Clouds 4200 ft
Heat Index 91 °F
Dew Point 69 °F
Humidity 55%
Rainfall 0.02 in
Snow Depth Not available.
UV 2.5 out of 12
Pollen 9.20 out of 12
Air Quality Not available.
Flu Activity Not available.
METAR KAAO 291954Z AUTO 20014KT 10SM SCT042 29/18 A2985 RMK AO2 SLP096 T02890183

More Conditions Fewer Conditions

10-Day Weather Forecast

Almanac

Astronomy

Aug. 29, 2014 Rise Set
Actual Time 6:56 AM CDT 8:02 PM CDT
Civil Twilight 6:29 AM CDT 8:29 PM CDT
Nautical Twilight 5:57 AM CDT 9:01 PM CDT
Astronomical Twilight 5:24 AM CDT 9:34 PM CDT
Moon 10:42 AM CDT 10:06 PM CDT
Length of Visible Light 13h 59m
Length of Day
13h 05m
Tomorrow will be 2m 18s shorter.
Waxing Crescent, 16% of the Moon is Illuminated
Today
Waxing Crescent
Sep 2
First Quarter
Sep 8
Full
Sep 15
Last Quarter
Sep 24
New

Today's Extremes

State Highs State Lows

Community

WunderPhotos

Upload Photos

1,748,329 photos uploaded!

WunderBlogs® & News

By Dr. Jeff Masters
Director of Meteorology, Weather Underground
By Kari Strenfel
Meteorologist, Weather Underground
By Christopher C. Burt
Weather Historian, Weather Underground
August 29, 2014
August 29, 2014
August 29, 2014

Nearby

Snow Depth

Station Depth Elevation
No new snow has been reported.

Earthquake Activity

City Distance Mag. Time & Date
Guthrie, Oklahoma 129 miles 3.2 10:39 AM CDT
2014-08-29
Perry, Oklahoma 103 miles 3.0 4:52 AM CDT
2014-08-29
Stillwater, Oklahoma 111 miles 3.1 10:44 AM CDT
2014-08-27
Anthony, Kansas 55 miles 2.8 10:11 AM CDT
2014-08-27
Minimum magnitude displayed is 2.5.

Coastal Water Temperatures

Place Temperature
No Stations Reporting

Nearby Weather Stations